EGWN weather

RAF Halton
Halton, England, United Kingdom

Public forecast

Using degrees Celsius for public forecast. Weather courtesy of forecast.io.

METAR (pilot weather report)

Closest report is London Luton Airport, 14.6 nm (27.1 km) ENE. Retrieved 2019/03/25 19:20 UTC (23 minutes ago):

EGGW 251920Z AUTO 03005KT 010V080 9999 NCD 06/01 Q1033

TAF (pilot weather forecast)

Closest forecast is London Luton Airport, 14.6 nm (27.1 km) ENE. Retrieved 2019/03/25 18:16 UTC (1 hour ago):

TAF EGGW 251655Z 2518/2618 34012KT 9999 SCT035 BECMG 2518/2521 VRB03KT PROB30 TEMPO 2605/2609 7000 BKN005 BECMG 2606/2609 32010KT